sensor_id;sensor_type;location;lat;lon;timestamp;temperature;humidity
74359;DHT22;62792;46.236;6.040;2022-09-12T00:02:23;24.50;60.20
74359;DHT22;62792;46.236;6.040;2022-09-12T00:07:26;24.40;60.30
74359;DHT22;62792;46.236;6.040;2022-09-12T00:12:29;24.40;60.00
74359;DHT22;62792;46.236;6.040;2022-09-12T00:17:34;24.30;60.40
74359;DHT22;62792;46.236;6.040;2022-09-12T00:22:36;24.40;60.20
74359;DHT22;62792;46.236;6.040;2022-09-12T00:27:39;24.40;60.50
74359;DHT22;62792;46.236;6.040;2022-09-12T00:32:43;24.40;60.10
74359;DHT22;62792;46.236;6.040;2022-09-12T00:37:46;24.30;60.00
74359;DHT22;62792;46.236;6.040;2022-09-12T00:42:48;24.30;60.10
74359;DHT22;62792;46.236;6.040;2022-09-12T00:47:52;24.30;60.20
74359;DHT22;62792;46.236;6.040;2022-09-12T00:52:56;24.30;60.10
74359;DHT22;62792;46.236;6.040;2022-09-12T00:58:00;24.30;60.10
74359;DHT22;62792;46.236;6.040;2022-09-12T01:03:06;24.40;60.00
74359;DHT22;62792;46.236;6.040;2022-09-12T01:08:10;24.20;60.00
74359;DHT22;62792;46.236;6.040;2022-09-12T01:13:13;24.20;60.10
74359;DHT22;62792;46.236;6.040;2022-09-12T01:18:19;24.20;60.20
74359;DHT22;62792;46.236;6.040;2022-09-12T01:34:05;24.30;60.20
74359;DHT22;62792;46.236;6.040;2022-09-12T01:39:13;24.30;60.10
74359;DHT22;62792;46.236;6.040;2022-09-12T01:44:21;24.20;60.20
74359;DHT22;62792;46.236;6.040;2022-09-12T01:49:28;24.20;60.00
74359;DHT22;62792;46.236;6.040;2022-09-12T01:54:34;24.20;59.80
74359;DHT22;62792;46.236;6.040;2022-09-12T01:59:39;24.20;60.10
74359;DHT22;62792;46.236;6.040;2022-09-12T02:04:45;24.20;59.80
74359;DHT22;62792;46.236;6.040;2022-09-12T02:09:53;24.20;59.90
74359;DHT22;62792;46.236;6.040;2022-09-12T02:14:58;24.20;59.90
74359;DHT22;62792;46.236;6.040;2022-09-12T02:20:05;24.20;60.00
74359;DHT22;62792;46.236;6.040;2022-09-12T02:25:21;24.10;59.80
74359;DHT22;62792;46.236;6.040;2022-09-12T02:30:25;24.10;59.90
74359;DHT22;62792;46.236;6.040;2022-09-12T02:35:33;24.20;59.80
74359;DHT22;62792;46.236;6.040;2022-09-12T02:40:37;24.20;59.70
74359;DHT22;62792;46.236;6.040;2022-09-12T02:45:39;24.10;59.60
74359;DHT22;62792;46.236;6.040;2022-09-12T02:50:43;24.10;59.80
74359;DHT22;62792;46.236;6.040;2022-09-12T02:55:46;24.10;59.60
74359;DHT22;62792;46.236;6.040;2022-09-12T03:00:50;24.10;59.90
74359;DHT22;62792;46.236;6.040;2022-09-12T03:05:58;24.10;59.80
74359;DHT22;62792;46.236;6.040;2022-09-12T03:11:05;24.10;59.60
74359;DHT22;62792;46.236;6.040;2022-09-12T03:16:12;24.10;59.60
74359;DHT22;62792;46.236;6.040;2022-09-12T03:21:20;24.00;59.80
74359;DHT22;62792;46.236;6.040;2022-09-12T03:26:25;24.00;59.80
74359;DHT22;62792;46.236;6.040;2022-09-12T03:31:29;24.00;59.70
74359;DHT22;62792;46.236;6.040;2022-09-12T03:36:33;24.00;59.30
74359;DHT22;62792;46.236;6.040;2022-09-12T03:41:36;24.00;59.70
74359;DHT22;62792;46.236;6.040;2022-09-12T03:46:38;24.00;59.70
74359;DHT22;62792;46.236;6.040;2022-09-12T03:51:42;24.00;59.70
74359;DHT22;62792;46.236;6.040;2022-09-12T03:56:45;24.00;59.60
74359;DHT22;62792;46.236;6.040;2022-09-12T04:01:47;24.00;59.50
74359;DHT22;62792;46.236;6.040;2022-09-12T04:06:51;23.90;59.60
74359;DHT22;62792;46.236;6.040;2022-09-12T04:11:54;23.90;59.40
74359;DHT22;62792;46.236;6.040;2022-09-12T04:16:56;23.90;59.60
74359;DHT22;62792;46.236;6.040;2022-09-12T04:22:00;23.90;59.40
74359;DHT22;62792;46.236;6.040;2022-09-12T04:27:03;24.00;59.30
74359;DHT22;62792;46.236;6.040;2022-09-12T04:32:08;23.90;59.40
74359;DHT22;62792;46.236;6.040;2022-09-12T04:37:12;23.90;59.20
74359;DHT22;62792;46.236;6.040;2022-09-12T04:42:15;24.00;59.30
74359;DHT22;62792;46.236;6.040;2022-09-12T04:47:17;23.90;59.10
74359;DHT22;62792;46.236;6.040;2022-09-12T04:52:23;23.90;59.10
74359;DHT22;62792;46.236;6.040;2022-09-12T04:57:26;23.90;59.00
74359;DHT22;62792;46.236;6.040;2022-09-12T05:02:28;23.80;59.10
74359;DHT22;62792;46.236;6.040;2022-09-12T05:07:33;23.90;59.20
74359;DHT22;62792;46.236;6.040;2022-09-12T05:12:36;23.80;59.10
74359;DHT22;62792;46.236;6.040;2022-09-12T05:17:38;23.90;59.10
74359;DHT22;62792;46.236;6.040;2022-09-12T05:22:42;23.80;59.10
74359;DHT22;62792;46.236;6.040;2022-09-12T05:27:45;23.80;59.00
74359;DHT22;62792;46.236;6.040;2022-09-12T05:32:51;23.80;59.10
74359;DHT22;62792;46.236;6.040;2022-09-12T05:37:54;23.80;59.10
74359;DHT22;62792;46.236;6.040;2022-09-12T05:42:57;23.90;59.00
74359;DHT22;62792;46.236;6.040;2022-09-12T05:48:00;23.80;59.00
74359;DHT22;62792;46.236;6.040;2022-09-12T05:53:04;23.80;59.00
74359;DHT22;62792;46.236;6.040;2022-09-12T05:58:07;23.90;58.80
74359;DHT22;62792;46.236;6.040;2022-09-12T06:03:10;23.80;58.80
74359;DHT22;62792;46.236;6.040;2022-09-12T06:08:14;23.80;58.70
74359;DHT22;62792;46.236;6.040;2022-09-12T06:13:17;23.90;58.70
74359;DHT22;62792;46.236;6.040;2022-09-12T06:18:19;23.80;58.60
74359;DHT22;62792;46.236;6.040;2022-09-12T06:23:24;23.90;58.70
74359;DHT22;62792;46.236;6.040;2022-09-12T06:28:27;23.80;58.80
74359;DHT22;62792;46.236;6.040;2022-09-12T06:33:30;23.90;58.80
74359;DHT22;62792;46.236;6.040;2022-09-12T06:38:35;23.80;58.70
74359;DHT22;62792;46.236;6.040;2022-09-12T06:43:39;23.90;58.70
74359;DHT22;62792;46.236;6.040;2022-09-12T06:48:42;23.90;58.70
74359;DHT22;62792;46.236;6.040;2022-09-12T06:53:48;23.80;58.80
74359;DHT22;62792;46.236;6.040;2022-09-12T06:58:51;23.80;58.70
74359;DHT22;62792;46.236;6.040;2022-09-12T07:03:55;23.80;58.80
74359;DHT22;62792;46.236;6.040;2022-09-12T07:09:00;23.70;58.70
74359;DHT22;62792;46.236;6.040;2022-09-12T07:14:04;23.70;58.80
74359;DHT22;62792;46.236;6.040;2022-09-12T07:19:07;23.80;58.80
74359;DHT22;62792;46.236;6.040;2022-09-12T07:24:11;23.80;58.90
74359;DHT22;62792;46.236;6.040;2022-09-12T07:29:14;23.70;58.90
74359;DHT22;62792;46.236;6.040;2022-09-12T07:34:37;23.60;59.20
74359;DHT22;62792;46.236;6.040;2022-09-12T07:39:41;23.70;59.20
74359;DHT22;62792;46.236;6.040;2022-09-12T07:44:44;23.70;59.30
74359;DHT22;62792;46.236;6.040;2022-09-12T07:49:46;23.80;59.80
74359;DHT22;62792;46.236;6.040;2022-09-12T07:54:50;23.90;59.70
74359;DHT22;62792;46.236;6.040;2022-09-12T07:59:53;23.90;59.80
74359;DHT22;62792;46.236;6.040;2022-09-12T08:04:56;24.00;59.80
74359;DHT22;62792;46.236;6.040;2022-09-12T08:10:00;24.00;60.20
74359;DHT22;62792;46.236;6.040;2022-09-12T08:15:03;24.10;60.20
74359;DHT22;62792;46.236;6.040;2022-09-12T08:20:06;24.20;60.20
74359;DHT22;62792;46.236;6.040;2022-09-12T08:25:10;24.30;60.40
74359;DHT22;62792;46.236;6.040;2022-09-12T08:30:13;24.30;60.30
74359;DHT22;62792;46.236;6.040;2022-09-12T08:35:16;24.20;60.00
74359;DHT22;62792;46.236;6.040;2022-09-12T08:40:20;24.20;60.00
74359;DHT22;62792;46.236;6.040;2022-09-12T08:45:24;24.20;60.20
74359;DHT22;62792;46.236;6.040;2022-09-12T08:50:29;24.20;60.50
74359;DHT22;62792;46.236;6.040;2022-09-12T08:55:34;24.30;60.30
74359;DHT22;62792;46.236;6.040;2022-09-12T09:00:39;24.20;60.20
74359;DHT22;62792;46.236;6.040;2022-09-12T09:05:47;24.30;60.20
74359;DHT22;62792;46.236;6.040;2022-09-12T09:10:55;24.40;60.20
74359;DHT22;62792;46.236;6.040;2022-09-12T09:16:01;24.40;60.10
74359;DHT22;62792;46.236;6.040;2022-09-12T09:21:08;24.50;60.20
74359;DHT22;62792;46.236;6.040;2022-09-12T09:26:20;24.50;60.00
74359;DHT22;62792;46.236;6.040;2022-09-12T09:31:28;24.50;60.10
74359;DHT22;62792;46.236;6.040;2022-09-12T09:36:33;24.60;59.80
74359;DHT22;62792;46.236;6.040;2022-09-12T09:41:44;24.50;60.10
74359;DHT22;62792;46.236;6.040;2022-09-12T09:46:51;24.70;60.30
74359;DHT22;62792;46.236;6.040;2022-09-12T09:51:55;24.70;60.10
74359;DHT22;62792;46.236;6.040;2022-09-12T09:57:02;24.70;60.30
74359;DHT22;62792;46.236;6.040;2022-09-12T10:02:19;24.70;60.10
74359;DHT22;62792;46.236;6.040;2022-09-12T10:07:25;24.70;60.20
74359;DHT22;62792;46.236;6.040;2022-09-12T10:12:29;24.80;59.90
74359;DHT22;62792;46.236;6.040;2022-09-12T10:17:38;24.80;59.80
74359;DHT22;62792;46.236;6.040;2022-09-12T10:22:45;24.70;60.20
74359;DHT22;62792;46.236;6.040;2022-09-12T10:27:53;24.80;60.20
74359;DHT22;62792;46.236;6.040;2022-09-12T10:33:02;24.80;59.70
74359;DHT22;62792;46.236;6.040;2022-09-12T10:38:09;24.80;59.80
74359;DHT22;62792;46.236;6.040;2022-09-12T10:43:22;24.80;60.00
74359;DHT22;62792;46.236;6.040;2022-09-12T10:48:28;24.80;59.90
74359;DHT22;62792;46.236;6.040;2022-09-12T10:53:38;24.70;59.80
74359;DHT22;62792;46.236;6.040;2022-09-12T10:58:47;24.70;60.20
74359;DHT22;62792;46.236;6.040;2022-09-12T11:03:59;24.70;60.10
74359;DHT22;62792;46.236;6.040;2022-09-12T11:09:09;24.60;60.00
74359;DHT22;62792;46.236;6.040;2022-09-12T11:14:30;24.60;60.00
74359;DHT22;62792;46.236;6.040;2022-09-12T11:19:43;24.70;59.80
74359;DHT22;62792;46.236;6.040;2022-09-12T11:24:56;24.70;60.00
74359;DHT22;62792;46.236;6.040;2022-09-12T11:30:04;24.60;59.90
74359;DHT22;62792;46.236;6.040;2022-09-12T11:35:12;24.60;60.00
74359;DHT22;62792;46.236;6.040;2022-09-12T11:40:22;24.60;60.00
74359;DHT22;62792;46.236;6.040;2022-09-12T11:45:31;24.60;60.20
74359;DHT22;62792;46.236;6.040;2022-09-12T11:50:37;24.70;60.30
74359;DHT22;62792;46.236;6.040;2022-09-12T11:55:43;24.70;60.00
74359;DHT22;62792;46.236;6.040;2022-09-12T12:00:50;24.80;60.20
74359;DHT22;62792;46.236;6.040;2022-09-12T12:05:56;24.70;60.00
74359;DHT22;62792;46.236;6.040;2022-09-12T12:11:01;24.80;60.20
74359;DHT22;62792;46.236;6.040;2022-09-12T12:16:06;24.70;60.30
74359;DHT22;62792;46.236;6.040;2022-09-12T12:21:20;24.80;60.60
74359;DHT22;62792;46.236;6.040;2022-09-12T12:47:45;25.20;59.40
74359;DHT22;62792;46.236;6.040;2022-09-12T12:52:49;25.20;59.60
74359;DHT22;62792;46.236;6.040;2022-09-12T12:57:53;25.30;59.80
74359;DHT22;62792;46.236;6.040;2022-09-12T13:02:59;25.30;59.60
74359;DHT22;62792;46.236;6.040;2022-09-12T13:08:04;25.40;59.60
74359;DHT22;62792;46.236;6.040;2022-09-12T13:13:08;25.30;59.80
74359;DHT22;62792;46.236;6.040;2022-09-12T13:18:13;25.30;59.70
74359;DHT22;62792;46.236;6.040;2022-09-12T13:23:23;25.30;59.50
74359;DHT22;62792;46.236;6.040;2022-09-12T13:28:28;25.20;59.90
74359;DHT22;62792;46.236;6.040;2022-09-12T13:33:34;25.30;59.70
74359;DHT22;62792;46.236;6.040;2022-09-12T13:38:41;25.30;60.00
74359;DHT22;62792;46.236;6.040;2022-09-12T13:43:46;25.20;60.00
74359;DHT22;62792;46.236;6.040;2022-09-12T13:48:50;25.30;59.80
74359;DHT22;62792;46.236;6.040;2022-09-12T13:53:54;25.30;60.10
74359;DHT22;62792;46.236;6.040;2022-09-12T13:59:00;25.40;60.20
74359;DHT22;62792;46.236;6.040;2022-09-12T14:04:09;25.30;60.10
74359;DHT22;62792;46.236;6.040;2022-09-12T14:09:36;25.40;60.30
74359;DHT22;62792;46.236;6.040;2022-09-12T14:14:39;25.50;60.40
74359;DHT22;62792;46.236;6.040;2022-09-12T14:19:45;25.50;60.20
74359;DHT22;62792;46.236;6.040;2022-09-12T14:24:48;25.70;60.00
74359;DHT22;62792;46.236;6.040;2022-09-12T14:29:52;25.60;60.30
74359;DHT22;62792;46.236;6.040;2022-09-12T14:35:06;25.80;60.20
74359;DHT22;62792;46.236;6.040;2022-09-12T14:40:14;25.90;60.20
74359;DHT22;62792;46.236;6.040;2022-09-12T14:45:17;26.10;59.80
74359;DHT22;62792;46.236;6.040;2022-09-12T14:50:28;26.50;58.50
74359;DHT22;62792;46.236;6.040;2022-09-12T14:55:33;26.80;57.70
74359;DHT22;62792;46.236;6.040;2022-09-12T15:00:36;27.00;57.20
74359;DHT22;62792;46.236;6.040;2022-09-12T15:05:48;27.30;57.00
74359;DHT22;62792;46.236;6.040;2022-09-12T15:10:51;27.60;56.50
74359;DHT22;62792;46.236;6.040;2022-09-12T15:15:54;27.90;55.90
74359;DHT22;62792;46.236;6.040;2022-09-12T15:20:59;27.90;55.80
74359;DHT22;62792;46.236;6.040;2022-09-12T15:26:03;28.40;55.50
74359;DHT22;62792;46.236;6.040;2022-09-12T15:31:07;28.40;55.40
74359;DHT22;62792;46.236;6.040;2022-09-12T15:36:15;28.40;55.40
74359;DHT22;62792;46.236;6.040;2022-09-12T15:41:18;28.90;54.70
74359;DHT22;62792;46.236;6.040;2022-09-12T15:46:21;29.00;54.60
74359;DHT22;62792;46.236;6.040;2022-09-12T15:51:25;29.20;53.70
74359;DHT22;62792;46.236;6.040;2022-09-12T15:56:28;29.30;53.50
74359;DHT22;62792;46.236;6.040;2022-09-12T16:01:30;29.20;53.80
74359;DHT22;62792;46.236;6.040;2022-09-12T16:06:34;29.10;54.00
74359;DHT22;62792;46.236;6.040;2022-09-12T16:11:38;29.00;55.20
74359;DHT22;62792;46.236;6.040;2022-09-12T16:16:40;29.00;55.10
74359;DHT22;62792;46.236;6.040;2022-09-12T16:21:45;29.10;55.30
74359;DHT22;62792;46.236;6.040;2022-09-12T16:26:49;29.10;54.30
74359;DHT22;62792;46.236;6.040;2022-09-12T16:31:51;29.10;55.40
74359;DHT22;62792;46.236;6.040;2022-09-12T16:36:55;29.00;55.20
74359;DHT22;62792;46.236;6.040;2022-09-12T16:41:58;29.00;55.60
74359;DHT22;62792;46.236;6.040;2022-09-12T16:47:00;29.00;55.60
74359;DHT22;62792;46.236;6.040;2022-09-12T16:52:04;29.00;55.50
74359;DHT22;62792;46.236;6.040;2022-09-12T16:57:07;29.00;55.80
74359;DHT22;62792;46.236;6.040;2022-09-12T17:02:11;28.90;55.90
74359;DHT22;62792;46.236;6.040;2022-09-12T17:07:15;28.80;56.00
74359;DHT22;62792;46.236;6.040;2022-09-12T17:12:18;28.70;56.40
74359;DHT22;62792;46.236;6.040;2022-09-12T17:17:20;28.60;56.50
74359;DHT22;62792;46.236;6.040;2022-09-12T17:22:24;28.40;56.80
74359;DHT22;62792;46.236;6.040;2022-09-12T17:27:28;28.20;57.10
74359;DHT22;62792;46.236;6.040;2022-09-12T17:32:30;28.00;57.30
74359;DHT22;62792;46.236;6.040;2022-09-12T17:37:34;27.90;57.60
74359;DHT22;62792;46.236;6.040;2022-09-12T17:42:37;27.60;58.30
74359;DHT22;62792;46.236;6.040;2022-09-12T17:47:41;27.40;58.30
74359;DHT22;62792;46.236;6.040;2022-09-12T17:52:45;27.20;58.70
74359;DHT22;62792;46.236;6.040;2022-09-12T17:57:48;27.10;58.90
74359;DHT22;62792;46.236;6.040;2022-09-12T18:02:50;27.10;58.80
74359;DHT22;62792;46.236;6.040;2022-09-12T18:07:54;27.00;59.20
74359;DHT22;62792;46.236;6.040;2022-09-12T18:12:57;27.00;59.30
74359;DHT22;62792;46.236;6.040;2022-09-12T18:18:00;26.90;59.20
74359;DHT22;62792;46.236;6.040;2022-09-12T18:23:04;26.80;59.30
74359;DHT22;62792;46.236;6.040;2022-09-12T18:28:06;26.70;59.50
74359;DHT22;62792;46.236;6.040;2022-09-12T18:33:09;26.60;60.00
74359;DHT22;62792;46.236;6.040;2022-09-12T18:38:13;26.50;60.20
74359;DHT22;62792;46.236;6.040;2022-09-12T18:43:16;26.50;60.50
74359;DHT22;62792;46.236;6.040;2022-09-12T18:48:18;26.50;60.30
74359;DHT22;62792;46.236;6.040;2022-09-12T18:53:22;26.40;60.20
74359;DHT22;62792;46.236;6.040;2022-09-12T18:58:26;26.30;61.40
74359;DHT22;62792;46.236;6.040;2022-09-12T19:03:28;26.30;61.40
74359;DHT22;62792;46.236;6.040;2022-09-12T19:08:32;26.20;61.90
74359;DHT22;62792;46.236;6.040;2022-09-12T19:13:36;26.10;61.70
74359;DHT22;62792;46.236;6.040;2022-09-12T19:18:39;26.20;61.80
74359;DHT22;62792;46.236;6.040;2022-09-12T19:23:43;26.10;62.10
74359;DHT22;62792;46.236;6.040;2022-09-12T19:28:46;26.10;62.10
74359;DHT22;62792;46.236;6.040;2022-09-12T19:33:49;25.90;61.90
74359;DHT22;62792;46.236;6.040;2022-09-12T19:38:53;25.90;62.20
74359;DHT22;62792;46.236;6.040;2022-09-12T19:43:56;25.90;62.10
74359;DHT22;62792;46.236;6.040;2022-09-12T19:48:59;25.90;62.00
74359;DHT22;62792;46.236;6.040;2022-09-12T19:54:03;25.80;62.30
74359;DHT22;62792;46.236;6.040;2022-09-12T19:59:06;25.80;62.30
74359;DHT22;62792;46.236;6.040;2022-09-12T20:04:10;25.80;62.20
74359;DHT22;62792;46.236;6.040;2022-09-12T20:09:14;25.70;62.50
74359;DHT22;62792;46.236;6.040;2022-09-12T20:14:16;25.70;62.20
74359;DHT22;62792;46.236;6.040;2022-09-12T20:19:21;25.60;62.50
74359;DHT22;62792;46.236;6.040;2022-09-12T20:24:25;25.60;62.70
74359;DHT22;62792;46.236;6.040;2022-09-12T20:29:28;25.60;62.70
74359;DHT22;62792;46.236;6.040;2022-09-12T20:34:33;25.60;62.50
74359;DHT22;62792;46.236;6.040;2022-09-12T20:39:37;25.50;62.80
74359;DHT22;62792;46.236;6.040;2022-09-12T20:44:39;25.60;62.80
74359;DHT22;62792;46.236;6.040;2022-09-12T20:49:42;25.50;62.90
74359;DHT22;62792;46.236;6.040;2022-09-12T20:54:47;25.40;62.90
74359;DHT22;62792;46.236;6.040;2022-09-12T20:59:49;25.40;62.60
74359;DHT22;62792;46.236;6.040;2022-09-12T21:04:53;25.40;62.70
74359;DHT22;62792;46.236;6.040;2022-09-12T21:09:58;25.40;62.80
74359;DHT22;62792;46.236;6.040;2022-09-12T21:15:01;25.40;62.80
74359;DHT22;62792;46.236;6.040;2022-09-12T21:20:03;25.40;62.80
74359;DHT22;62792;46.236;6.040;2022-09-12T21:25:13;25.30;62.90
74359;DHT22;62792;46.236;6.040;2022-09-12T21:30:16;25.30;62.80
74359;DHT22;62792;46.236;6.040;2022-09-12T21:35:18;25.30;63.00
74359;DHT22;62792;46.236;6.040;2022-09-12T21:40:22;25.30;63.00
74359;DHT22;62792;46.236;6.040;2022-09-12T21:45:25;25.20;63.10
74359;DHT22;62792;46.236;6.040;2022-09-12T21:50:27;25.20;63.00
74359;DHT22;62792;46.236;6.040;2022-09-12T21:55:31;25.20;63.00
74359;DHT22;62792;46.236;6.040;2022-09-12T22:00:34;25.10;63.00
74359;DHT22;62792;46.236;6.040;2022-09-12T22:05:37;25.10;63.30
74359;DHT22;62792;46.236;6.040;2022-09-12T22:10:42;25.10;63.10
74359;DHT22;62792;46.236;6.040;2022-09-12T22:15:48;25.10;62.90
74359;DHT22;62792;46.236;6.040;2022-09-12T22:20:57;25.10;63.10
74359;DHT22;62792;46.236;6.040;2022-09-12T22:26:01;25.10;63.00
74359;DHT22;62792;46.236;6.040;2022-09-12T22:31:04;25.10;63.30
74359;DHT22;62792;46.236;6.040;2022-09-12T22:36:07;25.10;63.20
74359;DHT22;62792;46.236;6.040;2022-09-12T22:41:11;25.10;63.00
74359;DHT22;62792;46.236;6.040;2022-09-12T22:46:15;25.00;63.10
74359;DHT22;62792;46.236;6.040;2022-09-12T22:51:17;25.00;63.10
74359;DHT22;62792;46.236;6.040;2022-09-12T22:56:21;25.00;63.30
74359;DHT22;62792;46.236;6.040;2022-09-12T23:01:25;25.00;63.30
74359;DHT22;62792;46.236;6.040;2022-09-12T23:06:27;25.00;63.20
74359;DHT22;62792;46.236;6.040;2022-09-12T23:11:31;25.00;63.00
74359;DHT22;62792;46.236;6.040;2022-09-12T23:16:34;25.00;63.20
74359;DHT22;62792;46.236;6.040;2022-09-12T23:21:37;24.90;63.20
74359;DHT22;62792;46.236;6.040;2022-09-12T23:26:41;24.90;63.00
74359;DHT22;62792;46.236;6.040;2022-09-12T23:31:45;24.90;63.10
74359;DHT22;62792;46.236;6.040;2022-09-12T23:36:48;24.90;63.10
74359;DHT22;62792;46.236;6.040;2022-09-12T23:41:52;24.90;63.20
74359;DHT22;62792;46.236;6.040;2022-09-12T23:46:56;24.90;63.00
74359;DHT22;62792;46.236;6.040;2022-09-12T23:51:59;24.90;63.00
74359;DHT22;62792;46.236;6.040;2022-09-12T23:57:03;24.90;63.10
